sensor_id;sensor_type;location;lat;lon;timestamp;P1;durP1;ratioP1;P2;durP2;ratioP2
14732;SDS011;7457;50.960;6.830;2022-11-15T00:01:47;13.73;;;9.60;;
14732;SDS011;7457;50.960;6.830;2022-11-15T00:04:12;11.35;;;9.18;;
14732;SDS011;7457;50.960;6.830;2022-11-15T00:06:38;12.82;;;9.50;;
14732;SDS011;7457;50.960;6.830;2022-11-15T00:09:04;11.80;;;9.48;;
14732;SDS011;7457;50.960;6.830;2022-11-15T00:11:29;11.02;;;8.95;;
14732;SDS011;7457;50.960;6.830;2022-11-15T00:13:55;11.45;;;9.38;;
14732;SDS011;7457;50.960;6.830;2022-11-15T00:16:22;10.93;;;9.00;;
14732;SDS011;7457;50.960;6.830;2022-11-15T00:18:48;10.13;;;8.77;;
14732;SDS011;7457;50.960;6.830;2022-11-15T00:21:14;11.95;;;9.48;;
14732;SDS011;7457;50.960;6.830;2022-11-15T00:23:40;11.32;;;9.60;;
14732;SDS011;7457;50.960;6.830;2022-11-15T00:26:06;12.40;;;9.23;;
14732;SDS011;7457;50.960;6.830;2022-11-15T00:28:35;11.57;;;8.90;;
14732;SDS011;7457;50.960;6.830;2022-11-15T00:31:02;10.13;;;8.63;;
14732;SDS011;7457;50.960;6.830;2022-11-15T00:33:28;13.05;;;9.15;;
14732;SDS011;7457;50.960;6.830;2022-11-15T00:35:59;13.60;;;9.60;;
14732;SDS011;7457;50.960;6.830;2022-11-15T00:38:33;11.07;;;8.05;;
14732;SDS011;7457;50.960;6.830;2022-11-15T00:40:59;10.73;;;8.18;;
14732;SDS011;7457;50.960;6.830;2022-11-15T00:43:26;12.25;;;8.30;;
14732;SDS011;7457;50.960;6.830;2022-11-15T00:45:51;10.05;;;8.20;;
14732;SDS011;7457;50.960;6.830;2022-11-15T00:48:17;10.48;;;8.90;;
14732;SDS011;7457;50.960;6.830;2022-11-15T00:50:43;10.15;;;8.82;;
14732;SDS011;7457;50.960;6.830;2022-11-15T00:53:08;11.93;;;8.80;;
14732;SDS011;7457;50.960;6.830;2022-11-15T00:55:34;12.45;;;9.02;;
14732;SDS011;7457;50.960;6.830;2022-11-15T00:58:00;11.23;;;9.10;;
14732;SDS011;7457;50.960;6.830;2022-11-15T01:00:25;13.23;;;8.88;;
14732;SDS011;7457;50.960;6.830;2022-11-15T01:02:51;12.32;;;9.07;;
14732;SDS011;7457;50.960;6.830;2022-11-15T01:05:17;11.10;;;8.57;;
14732;SDS011;7457;50.960;6.830;2022-11-15T01:07:42;14.13;;;9.05;;
14732;SDS011;7457;50.960;6.830;2022-11-15T01:10:08;12.88;;;9.05;;
14732;SDS011;7457;50.960;6.830;2022-11-15T01:12:34;10.93;;;8.63;;
14732;SDS011;7457;50.960;6.830;2022-11-15T01:14:59;12.65;;;9.57;;
14732;SDS011;7457;50.960;6.830;2022-11-15T01:17:25;11.35;;;8.85;;
14732;SDS011;7457;50.960;6.830;2022-11-15T01:19:51;10.93;;;8.88;;
14732;SDS011;7457;50.960;6.830;2022-11-15T01:22:16;16.13;;;9.57;;
14732;SDS011;7457;50.960;6.830;2022-11-15T01:24:42;11.75;;;8.68;;
14732;SDS011;7457;50.960;6.830;2022-11-15T01:27:08;12.70;;;9.57;;
14732;SDS011;7457;50.960;6.830;2022-11-15T01:29:34;10.77;;;9.60;;
14732;SDS011;7457;50.960;6.830;2022-11-15T01:32:00;11.25;;;9.48;;
14732;SDS011;7457;50.960;6.830;2022-11-15T01:34:25;11.65;;;8.82;;
14732;SDS011;7457;50.960;6.830;2022-11-15T01:36:51;13.82;;;9.32;;
14732;SDS011;7457;50.960;6.830;2022-11-15T01:39:17;11.95;;;8.73;;
14732;SDS011;7457;50.960;6.830;2022-11-15T01:41:43;10.50;;;8.57;;
14732;SDS011;7457;50.960;6.830;2022-11-15T01:46:55;12.20;;;9.35;;
14732;SDS011;7457;50.960;6.830;2022-11-15T01:49:22;14.73;;;9.05;;
14732;SDS011;7457;50.960;6.830;2022-11-15T01:51:49;10.07;;;8.90;;
14732;SDS011;7457;50.960;6.830;2022-11-15T01:54:15;11.57;;;8.77;;
14732;SDS011;7457;50.960;6.830;2022-11-15T01:56:49;14.10;;;9.85;;
14732;SDS011;7457;50.960;6.830;2022-11-15T01:59:18;11.75;;;9.32;;
14732;SDS011;7457;50.960;6.830;2022-11-15T02:01:44;13.48;;;9.20;;
14732;SDS011;7457;50.960;6.830;2022-11-15T02:04:19;13.55;;;9.25;;
14732;SDS011;7457;50.960;6.830;2022-11-15T02:06:46;10.15;;;8.65;;
14732;SDS011;7457;50.960;6.830;2022-11-15T02:09:13;12.73;;;8.52;;
14732;SDS011;7457;50.960;6.830;2022-11-15T02:11:39;12.93;;;8.98;;
14732;SDS011;7457;50.960;6.830;2022-11-15T02:14:05;13.45;;;9.73;;
14732;SDS011;7457;50.960;6.830;2022-11-15T02:33:41;9.07;;;8.18;;
14732;SDS011;7457;50.960;6.830;2022-11-15T02:35:44;10.15;;;8.63;;
14732;SDS011;7457;50.960;6.830;2022-11-15T02:41:31;12.65;;;8.60;;
14732;SDS011;7457;50.960;6.830;2022-11-15T02:44:04;10.18;;;9.05;;
14732;SDS011;7457;50.960;6.830;2022-11-15T02:47:06;11.27;;;9.30;;
14732;SDS011;7457;50.960;6.830;2022-11-15T02:49:39;8.93;;;7.88;;
14732;SDS011;7457;50.960;6.830;2022-11-15T02:52:08;13.98;;;8.65;;
14732;SDS011;7457;50.960;6.830;2022-11-15T02:54:34;10.80;;;8.50;;
14732;SDS011;7457;50.960;6.830;2022-11-15T02:57:10;12.10;;;8.90;;
14732;SDS011;7457;50.960;6.830;2022-11-15T03:05:11;11.25;;;8.52;;
14732;SDS011;7457;50.960;6.830;2022-11-15T03:12:59;11.35;;;8.30;;
14732;SDS011;7457;50.960;6.830;2022-11-15T03:15:37;11.65;;;8.32;;
14732;SDS011;7457;50.960;6.830;2022-11-15T03:18:08;9.65;;;8.38;;
14732;SDS011;7457;50.960;6.830;2022-11-15T03:20:42;12.00;;;8.65;;
14732;SDS011;7457;50.960;6.830;2022-11-15T03:23:09;10.13;;;8.52;;
14732;SDS011;7457;50.960;6.830;2022-11-15T03:25:37;9.45;;;8.10;;
14732;SDS011;7457;50.960;6.830;2022-11-15T03:28:09;10.30;;;8.25;;
14732;SDS011;7457;50.960;6.830;2022-11-15T03:30:38;9.15;;;8.05;;
14732;SDS011;7457;50.960;6.830;2022-11-15T03:33:05;10.15;;;8.07;;
14732;SDS011;7457;50.960;6.830;2022-11-15T03:35:34;11.25;;;8.95;;
14732;SDS011;7457;50.960;6.830;2022-11-15T03:40:57;10.70;;;8.02;;
14732;SDS011;7457;50.960;6.830;2022-11-15T03:45:57;12.55;;;8.43;;
14732;SDS011;7457;50.960;6.830;2022-11-15T03:48:30;11.10;;;7.75;;
14732;SDS011;7457;50.960;6.830;2022-11-15T03:51:02;11.98;;;7.90;;
14732;SDS011;7457;50.960;6.830;2022-11-15T03:53:29;10.63;;;8.27;;
14732;SDS011;7457;50.960;6.830;2022-11-15T03:55:55;9.68;;;7.78;;
14732;SDS011;7457;50.960;6.830;2022-11-15T03:58:21;10.88;;;8.13;;
14732;SDS011;7457;50.960;6.830;2022-11-15T04:00:46;9.13;;;7.70;;
14732;SDS011;7457;50.960;6.830;2022-11-15T04:03:12;9.88;;;7.82;;
14732;SDS011;7457;50.960;6.830;2022-11-15T04:05:37;8.43;;;7.50;;
14732;SDS011;7457;50.960;6.830;2022-11-15T04:08:03;10.60;;;7.30;;
14732;SDS011;7457;50.960;6.830;2022-11-15T04:10:29;8.63;;;7.22;;
14732;SDS011;7457;50.960;6.830;2022-11-15T04:12:54;8.88;;;7.00;;
14732;SDS011;7457;50.960;6.830;2022-11-15T04:15:21;7.43;;;6.60;;
14732;SDS011;7457;50.960;6.830;2022-11-15T04:17:48;8.73;;;6.72;;
14732;SDS011;7457;50.960;6.830;2022-11-15T04:23:02;7.90;;;6.57;;
14732;SDS011;7457;50.960;6.830;2022-11-15T04:25:52;8.70;;;6.55;;
14732;SDS011;7457;50.960;6.830;2022-11-15T04:28:20;7.47;;;6.15;;
14732;SDS011;7457;50.960;6.830;2022-11-15T04:30:46;9.85;;;6.75;;
14732;SDS011;7457;50.960;6.830;2022-11-15T04:33:12;10.35;;;7.13;;
14732;SDS011;7457;50.960;6.830;2022-11-15T04:35:37;7.43;;;6.63;;
14732;SDS011;7457;50.960;6.830;2022-11-15T04:38:04;8.60;;;6.70;;
14732;SDS011;7457;50.960;6.830;2022-11-15T04:40:32;9.68;;;6.85;;
14732;SDS011;7457;50.960;6.830;2022-11-15T04:42:58;7.47;;;6.50;;
14732;SDS011;7457;50.960;6.830;2022-11-15T04:45:23;9.23;;;6.95;;
14732;SDS011;7457;50.960;6.830;2022-11-15T04:47:49;8.40;;;7.32;;
14732;SDS011;7457;50.960;6.830;2022-11-15T04:50:15;8.05;;;7.25;;
14732;SDS011;7457;50.960;6.830;2022-11-15T04:52:46;8.63;;;7.43;;
14732;SDS011;7457;50.960;6.830;2022-11-15T04:55:16;7.93;;;7.10;;
14732;SDS011;7457;50.960;6.830;2022-11-15T04:57:42;8.60;;;7.18;;
14732;SDS011;7457;50.960;6.830;2022-11-15T05:00:09;8.75;;;7.00;;
14732;SDS011;7457;50.960;6.830;2022-11-15T05:02:39;8.82;;;7.38;;
14732;SDS011;7457;50.960;6.830;2022-11-15T05:05:24;9.18;;;7.45;;
14732;SDS011;7457;50.960;6.830;2022-11-15T05:07:50;9.48;;;7.18;;
14732;SDS011;7457;50.960;6.830;2022-11-15T05:10:16;8.73;;;7.35;;
14732;SDS011;7457;50.960;6.830;2022-11-15T05:12:42;9.23;;;8.27;;
14732;SDS011;7457;50.960;6.830;2022-11-15T05:15:07;8.13;;;7.32;;
14732;SDS011;7457;50.960;6.830;2022-11-15T05:17:34;7.97;;;6.90;;
14732;SDS011;7457;50.960;6.830;2022-11-15T05:19:59;9.07;;;7.90;;
14732;SDS011;7457;50.960;6.830;2022-11-15T05:22:25;8.55;;;7.50;;
14732;SDS011;7457;50.960;6.830;2022-11-15T05:24:51;10.82;;;7.82;;
14732;SDS011;7457;50.960;6.830;2022-11-15T05:27:17;8.23;;;6.90;;
14732;SDS011;7457;50.960;6.830;2022-11-15T05:29:42;7.80;;;6.68;;
14732;SDS011;7457;50.960;6.830;2022-11-15T05:32:08;7.63;;;6.47;;
14732;SDS011;7457;50.960;6.830;2022-11-15T05:34:35;7.35;;;6.60;;
14732;SDS011;7457;50.960;6.830;2022-11-15T05:37:00;9.75;;;6.65;;
14732;SDS011;7457;50.960;6.830;2022-11-15T05:39:26;9.23;;;6.93;;
14732;SDS011;7457;50.960;6.830;2022-11-15T05:41:56;8.18;;;5.97;;
14732;SDS011;7457;50.960;6.830;2022-11-15T05:44:35;7.80;;;6.70;;
14732;SDS011;7457;50.960;6.830;2022-11-15T05:47:04;6.78;;;6.03;;
14732;SDS011;7457;50.960;6.830;2022-11-15T05:49:33;5.90;;;5.30;;
14732;SDS011;7457;50.960;6.830;2022-11-15T05:52:04;6.00;;;5.40;;
14732;SDS011;7457;50.960;6.830;2022-11-15T05:54:32;8.52;;;5.40;;
14732;SDS011;7457;50.960;6.830;2022-11-15T05:56:59;6.15;;;5.55;;
14732;SDS011;7457;50.960;6.830;2022-11-15T05:59:25;6.88;;;6.03;;
14732;SDS011;7457;50.960;6.830;2022-11-15T06:01:53;8.82;;;5.70;;
14732;SDS011;7457;50.960;6.830;2022-11-15T06:04:18;8.45;;;6.00;;
14732;SDS011;7457;50.960;6.830;2022-11-15T06:06:44;7.05;;;5.53;;
14732;SDS011;7457;50.960;6.830;2022-11-15T06:09:09;6.88;;;6.20;;
14732;SDS011;7457;50.960;6.830;2022-11-15T06:11:35;8.32;;;6.47;;
14732;SDS011;7457;50.960;6.830;2022-11-15T06:14:01;7.65;;;6.43;;
14732;SDS011;7457;50.960;6.830;2022-11-15T06:16:26;8.20;;;6.13;;
14732;SDS011;7457;50.960;6.830;2022-11-15T06:18:52;7.30;;;5.90;;
14732;SDS011;7457;50.960;6.830;2022-11-15T06:21:17;6.28;;;5.68;;
14732;SDS011;7457;50.960;6.830;2022-11-15T06:23:43;5.70;;;5.15;;
14732;SDS011;7457;50.960;6.830;2022-11-15T06:26:09;6.13;;;4.95;;
14732;SDS011;7457;50.960;6.830;2022-11-15T06:28:34;6.05;;;5.20;;
14732;SDS011;7457;50.960;6.830;2022-11-15T06:31:03;6.72;;;5.45;;
14732;SDS011;7457;50.960;6.830;2022-11-15T06:33:33;6.20;;;4.70;;
14732;SDS011;7457;50.960;6.830;2022-11-15T06:36:00;8.15;;;5.18;;
14732;SDS011;7457;50.960;6.830;2022-11-15T06:38:29;5.10;;;4.60;;
14732;SDS011;7457;50.960;6.830;2022-11-15T06:40:55;7.78;;;5.15;;
14732;SDS011;7457;50.960;6.830;2022-11-15T06:43:26;5.03;;;4.53;;
14732;SDS011;7457;50.960;6.830;2022-11-15T06:45:51;6.55;;;5.00;;
14732;SDS011;7457;50.960;6.830;2022-11-15T06:48:17;5.43;;;4.70;;
14732;SDS011;7457;50.960;6.830;2022-11-15T06:50:42;7.82;;;5.30;;
14732;SDS011;7457;50.960;6.830;2022-11-15T06:53:15;5.97;;;4.93;;
14732;SDS011;7457;50.960;6.830;2022-11-15T06:55:40;5.38;;;4.88;;
14732;SDS011;7457;50.960;6.830;2022-11-15T06:58:06;5.00;;;4.50;;
14732;SDS011;7457;50.960;6.830;2022-11-15T07:00:31;6.18;;;5.30;;
14732;SDS011;7457;50.960;6.830;2022-11-15T07:02:59;5.47;;;4.90;;
14732;SDS011;7457;50.960;6.830;2022-11-15T07:05:26;5.40;;;4.82;;
14732;SDS011;7457;50.960;6.830;2022-11-15T07:07:54;5.00;;;4.53;;
14732;SDS011;7457;50.960;6.830;2022-11-15T07:10:21;4.70;;;4.20;;
14732;SDS011;7457;50.960;6.830;2022-11-15T07:12:49;4.50;;;4.10;;
14732;SDS011;7457;50.960;6.830;2022-11-15T07:15:18;6.60;;;4.70;;
14732;SDS011;7457;50.960;6.830;2022-11-15T07:17:45;5.00;;;4.00;;
14732;SDS011;7457;50.960;6.830;2022-11-15T07:20:12;4.95;;;4.07;;
14732;SDS011;7457;50.960;6.830;2022-11-15T07:22:38;4.60;;;3.95;;
14732;SDS011;7457;50.960;6.830;2022-11-15T07:25:07;8.25;;;4.00;;
14732;SDS011;7457;50.960;6.830;2022-11-15T07:27:34;4.45;;;3.47;;
14732;SDS011;7457;50.960;6.830;2022-11-15T07:30:00;4.70;;;3.45;;
14732;SDS011;7457;50.960;6.830;2022-11-15T07:32:26;5.47;;;3.67;;
14732;SDS011;7457;50.960;6.830;2022-11-15T07:34:51;5.28;;;3.28;;
14732;SDS011;7457;50.960;6.830;2022-11-15T07:37:17;3.28;;;2.97;;
14732;SDS011;7457;50.960;6.830;2022-11-15T07:39:43;5.60;;;2.88;;
14732;SDS011;7457;50.960;6.830;2022-11-15T07:42:08;3.35;;;2.70;;
14732;SDS011;7457;50.960;6.830;2022-11-15T07:44:53;3.20;;;2.90;;
14732;SDS011;7457;50.960;6.830;2022-11-15T07:47:18;4.53;;;3.20;;
14732;SDS011;7457;50.960;6.830;2022-11-15T07:49:45;3.75;;;2.80;;
14732;SDS011;7457;50.960;6.830;2022-11-15T07:52:11;2.83;;;2.63;;
14732;SDS011;7457;50.960;6.830;2022-11-15T07:54:37;3.45;;;2.65;;
14732;SDS011;7457;50.960;6.830;2022-11-15T07:57:03;3.28;;;2.20;;
14732;SDS011;7457;50.960;6.830;2022-11-15T07:59:29;3.42;;;2.60;;
14732;SDS011;7457;50.960;6.830;2022-11-15T08:01:55;3.63;;;2.60;;
14732;SDS011;7457;50.960;6.830;2022-11-15T08:04:21;3.63;;;2.60;;
14732;SDS011;7457;50.960;6.830;2022-11-15T08:06:46;3.00;;;2.17;;
14732;SDS011;7457;50.960;6.830;2022-11-15T08:09:12;5.25;;;2.70;;
14732;SDS011;7457;50.960;6.830;2022-11-15T08:11:38;3.08;;;2.55;;
14732;SDS011;7457;50.960;6.830;2022-11-15T08:14:04;7.90;;;3.13;;
14732;SDS011;7457;50.960;6.830;2022-11-15T08:16:30;5.05;;;2.65;;
14732;SDS011;7457;50.960;6.830;2022-11-15T08:18:56;2.42;;;2.22;;
14732;SDS011;7457;50.960;6.830;2022-11-15T08:21:21;4.60;;;2.28;;
14732;SDS011;7457;50.960;6.830;2022-11-15T08:23:47;2.85;;;2.30;;
14732;SDS011;7457;50.960;6.830;2022-11-15T08:26:13;3.20;;;2.65;;
14732;SDS011;7457;50.960;6.830;2022-11-15T08:28:39;3.15;;;2.33;;
14732;SDS011;7457;50.960;6.830;2022-11-15T08:31:05;6.75;;;2.67;;
14732;SDS011;7457;50.960;6.830;2022-11-15T08:33:31;4.05;;;2.38;;
14732;SDS011;7457;50.960;6.830;2022-11-15T08:35:58;2.55;;;2.15;;
14732;SDS011;7457;50.960;6.830;2022-11-15T08:38:25;3.22;;;2.92;;
14732;SDS011;7457;50.960;6.830;2022-11-15T08:40:53;5.70;;;2.72;;
14732;SDS011;7457;50.960;6.830;2022-11-15T08:43:26;2.45;;;2.20;;
14732;SDS011;7457;50.960;6.830;2022-11-15T08:45:51;2.60;;;2.40;;
14732;SDS011;7457;50.960;6.830;2022-11-15T08:48:20;2.53;;;2.33;;
14732;SDS011;7457;50.960;6.830;2022-11-15T08:50:45;4.47;;;2.88;;
14732;SDS011;7457;50.960;6.830;2022-11-15T08:53:12;4.25;;;3.05;;
14732;SDS011;7457;50.960;6.830;2022-11-15T08:55:38;4.25;;;2.88;;
14732;SDS011;7457;50.960;6.830;2022-11-15T08:58:04;3.88;;;3.10;;
14732;SDS011;7457;50.960;6.830;2022-11-15T09:00:30;3.55;;;2.70;;
14732;SDS011;7457;50.960;6.830;2022-11-15T09:02:56;4.80;;;3.05;;
14732;SDS011;7457;50.960;6.830;2022-11-15T09:05:21;2.88;;;2.42;;
14732;SDS011;7457;50.960;6.830;2022-11-15T09:07:47;2.47;;;2.20;;
14732;SDS011;7457;50.960;6.830;2022-11-15T09:10:17;2.85;;;2.47;;
14732;SDS011;7457;50.960;6.830;2022-11-15T09:12:43;3.67;;;2.03;;
14732;SDS011;7457;50.960;6.830;2022-11-15T09:15:08;4.63;;;2.67;;
14732;SDS011;7457;50.960;6.830;2022-11-15T09:17:34;2.78;;;2.30;;
14732;SDS011;7457;50.960;6.830;2022-11-15T09:20:00;3.50;;;2.05;;
14732;SDS011;7457;50.960;6.830;2022-11-15T09:22:25;2.95;;;2.10;;
14732;SDS011;7457;50.960;6.830;2022-11-15T09:24:51;4.22;;;2.40;;
14732;SDS011;7457;50.960;6.830;2022-11-15T09:27:17;3.10;;;2.10;;
14732;SDS011;7457;50.960;6.830;2022-11-15T09:29:42;2.40;;;2.10;;
14732;SDS011;7457;50.960;6.830;2022-11-15T09:32:08;2.78;;;1.92;;
14732;SDS011;7457;50.960;6.830;2022-11-15T09:34:34;1.80;;;1.70;;
14732;SDS011;7457;50.960;6.830;2022-11-15T09:37:00;3.15;;;1.80;;
14732;SDS011;7457;50.960;6.830;2022-11-15T09:39:25;2.92;;;1.73;;
14732;SDS011;7457;50.960;6.830;2022-11-15T09:50:15;4.55;;;1.83;;
14732;SDS011;7457;50.960;6.830;2022-11-15T09:52:54;6.43;;;1.75;;
14732;SDS011;7457;50.960;6.830;2022-11-15T09:55:20;2.88;;;2.00;;
14732;SDS011;7457;50.960;6.830;2022-11-15T09:58:00;2.85;;;1.73;;
14732;SDS011;7457;50.960;6.830;2022-11-15T10:00:46;3.55;;;1.60;;
14732;SDS011;7457;50.960;6.830;2022-11-15T10:05:47;4.85;;;1.70;;
14732;SDS011;7457;50.960;6.830;2022-11-15T10:11:01;4.95;;;1.90;;
14732;SDS011;7457;50.960;6.830;2022-11-15T10:13:32;3.38;;;1.70;;
14732;SDS011;7457;50.960;6.830;2022-11-15T10:24:15;4.15;;;1.55;;
14732;SDS011;7457;50.960;6.830;2022-11-15T10:26:48;2.67;;;1.20;;
14732;SDS011;7457;50.960;6.830;2022-11-15T10:29:18;2.40;;;1.27;;
14732;SDS011;7457;50.960;6.830;2022-11-15T10:31:44;4.82;;;1.73;;
14732;SDS011;7457;50.960;6.830;2022-11-15T10:34:12;5.22;;;1.67;;
14732;SDS011;7457;50.960;6.830;2022-11-15T10:36:43;5.63;;;1.98;;
14732;SDS011;7457;50.960;6.830;2022-11-15T10:39:22;4.65;;;1.60;;
14732;SDS011;7457;50.960;6.830;2022-11-15T10:41:48;4.50;;;1.30;;
14732;SDS011;7457;50.960;6.830;2022-11-15T10:49:24;1.23;;;1.00;;
14732;SDS011;7457;50.960;6.830;2022-11-15T10:54:40;3.08;;;0.95;;
14732;SDS011;7457;50.960;6.830;2022-11-15T10:57:19;2.35;;;0.90;;
14732;SDS011;7457;50.960;6.830;2022-11-15T10:59:49;4.05;;;1.23;;
14732;SDS011;7457;50.960;6.830;2022-11-15T11:07:58;2.10;;;1.20;;
14732;SDS011;7457;50.960;6.830;2022-11-15T11:10:26;4.03;;;1.67;;
14732;SDS011;7457;50.960;6.830;2022-11-15T11:12:52;2.30;;;0.95;;
14732;SDS011;7457;50.960;6.830;2022-11-15T11:15:18;4.50;;;1.00;;
14732;SDS011;7457;50.960;6.830;2022-11-15T11:20:37;2.15;;;1.10;;
14732;SDS011;7457;50.960;6.830;2022-11-15T11:26:08;1.30;;;1.20;;
14732;SDS011;7457;50.960;6.830;2022-11-15T11:34:23;1.35;;;0.80;;
14732;SDS011;7457;50.960;6.830;2022-11-15T11:37:47;3.38;;;1.10;;
14732;SDS011;7457;50.960;6.830;2022-11-15T11:51:14;3.42;;;1.45;;
14732;SDS011;7457;50.960;6.830;2022-11-15T11:53:49;3.00;;;1.33;;
14732;SDS011;7457;50.960;6.830;2022-11-15T11:56:31;4.82;;;1.42;;
14732;SDS011;7457;50.960;6.830;2022-11-15T11:59:10;2.10;;;1.15;;
14732;SDS011;7457;50.960;6.830;2022-11-15T12:01:53;1.70;;;0.98;;
14732;SDS011;7457;50.960;6.830;2022-11-15T12:09:51;1.65;;;1.30;;
14732;SDS011;7457;50.960;6.830;2022-11-15T12:15:13;3.33;;;1.67;;
14732;SDS011;7457;50.960;6.830;2022-11-15T12:17:41;4.38;;;1.60;;
14732;SDS011;7457;50.960;6.830;2022-11-15T12:20:14;6.55;;;1.58;;
14732;SDS011;7457;50.960;6.830;2022-11-15T12:27:47;1.85;;;1.20;;
14732;SDS011;7457;50.960;6.830;2022-11-15T12:30:15;2.05;;;1.02;;
14732;SDS011;7457;50.960;6.830;2022-11-15T12:32:57;2.40;;;1.23;;
14732;SDS011;7457;50.960;6.830;2022-11-15T12:35:40;3.20;;;1.10;;
14732;SDS011;7457;50.960;6.830;2022-11-15T12:38:11;2.50;;;1.60;;
14732;SDS011;7457;50.960;6.830;2022-11-15T12:40:38;1.30;;;1.17;;
14732;SDS011;7457;50.960;6.830;2022-11-15T12:46:11;1.17;;;1.08;;
14732;SDS011;7457;50.960;6.830;2022-11-15T12:51:09;2.08;;;1.05;;
14732;SDS011;7457;50.960;6.830;2022-11-15T12:53:34;3.22;;;1.05;;
14732;SDS011;7457;50.960;6.830;2022-11-15T13:06:53;3.13;;;1.10;;
14732;SDS011;7457;50.960;6.830;2022-11-15T13:11:57;3.30;;;1.58;;
14732;SDS011;7457;50.960;6.830;2022-11-15T13:14:45;2.72;;;1.35;;
14732;SDS011;7457;50.960;6.830;2022-11-15T13:19:45;6.63;;;2.05;;
14732;SDS011;7457;50.960;6.830;2022-11-15T13:22:12;5.32;;;1.90;;
14732;SDS011;7457;50.960;6.830;2022-11-15T13:24:57;3.38;;;1.50;;
14732;SDS011;7457;50.960;6.830;2022-11-15T13:27:23;2.28;;;2.08;;
14732;SDS011;7457;50.960;6.830;2022-11-15T13:29:50;2.30;;;1.67;;
14732;SDS011;7457;50.960;6.830;2022-11-15T13:32:17;2.65;;;1.70;;
14732;SDS011;7457;50.960;6.830;2022-11-15T13:34:43;4.20;;;2.15;;
14732;SDS011;7457;50.960;6.830;2022-11-15T13:37:27;2.33;;;2.03;;
14732;SDS011;7457;50.960;6.830;2022-11-15T13:39:57;3.42;;;1.90;;
14732;SDS011;7457;50.960;6.830;2022-11-15T13:42:40;2.30;;;2.10;;
14732;SDS011;7457;50.960;6.830;2022-11-15T13:45:12;6.95;;;2.22;;
14732;SDS011;7457;50.960;6.830;2022-11-15T13:47:39;2.90;;;2.60;;
14732;SDS011;7457;50.960;6.830;2022-11-15T13:50:05;6.85;;;2.40;;
14732;SDS011;7457;50.960;6.830;2022-11-15T13:52:32;6.10;;;2.50;;
14732;SDS011;7457;50.960;6.830;2022-11-15T13:57:58;2.72;;;2.22;;
14732;SDS011;7457;50.960;6.830;2022-11-15T14:08:41;4.32;;;2.55;;
14732;SDS011;7457;50.960;6.830;2022-11-15T14:11:21;2.88;;;2.50;;
14732;SDS011;7457;50.960;6.830;2022-11-15T14:14:01;3.00;;;2.70;;
14732;SDS011;7457;50.960;6.830;2022-11-15T14:16:34;3.35;;;3.05;;
14732;SDS011;7457;50.960;6.830;2022-11-15T14:19:01;5.82;;;3.95;;
14732;SDS011;7457;50.960;6.830;2022-11-15T14:21:28;2.78;;;2.58;;
14732;SDS011;7457;50.960;6.830;2022-11-15T14:24:13;5.47;;;2.90;;
14732;SDS011;7457;50.960;6.830;2022-11-15T14:26:54;5.00;;;2.65;;
14732;SDS011;7457;50.960;6.830;2022-11-15T14:31:53;2.90;;;2.63;;
14732;SDS011;7457;50.960;6.830;2022-11-15T14:34:31;3.72;;;2.72;;
14732;SDS011;7457;50.960;6.830;2022-11-15T14:36:57;3.03;;;2.67;;
14732;SDS011;7457;50.960;6.830;2022-11-15T14:39:23;4.30;;;2.90;;
14732;SDS011;7457;50.960;6.830;2022-11-15T14:41:50;5.97;;;2.55;;
14732;SDS011;7457;50.960;6.830;2022-11-15T14:44:15;7.78;;;2.97;;
14732;SDS011;7457;50.960;6.830;2022-11-15T14:46:43;3.05;;;2.50;;
14732;SDS011;7457;50.960;6.830;2022-11-15T14:49:10;3.35;;;2.75;;
14732;SDS011;7457;50.960;6.830;2022-11-15T14:51:37;5.15;;;2.83;;
14732;SDS011;7457;50.960;6.830;2022-11-15T14:54:03;3.28;;;2.85;;
14732;SDS011;7457;50.960;6.830;2022-11-15T14:56:29;3.22;;;2.67;;
14732;SDS011;7457;50.960;6.830;2022-11-15T14:58:54;4.28;;;2.95;;
14732;SDS011;7457;50.960;6.830;2022-11-15T15:01:22;3.30;;;2.78;;
14732;SDS011;7457;50.960;6.830;2022-11-15T15:03:49;3.55;;;2.85;;
14732;SDS011;7457;50.960;6.830;2022-11-15T15:06:17;3.28;;;2.63;;
14732;SDS011;7457;50.960;6.830;2022-11-15T15:08:43;3.40;;;3.05;;
14732;SDS011;7457;50.960;6.830;2022-11-15T15:14:04;6.57;;;3.30;;
14732;SDS011;7457;50.960;6.830;2022-11-15T15:16:29;2.88;;;2.58;;
14732;SDS011;7457;50.960;6.830;2022-11-15T15:18:55;2.50;;;2.30;;
14732;SDS011;7457;50.960;6.830;2022-11-15T15:21:22;6.40;;;2.83;;
14732;SDS011;7457;50.960;6.830;2022-11-15T15:23:48;3.80;;;3.33;;
14732;SDS011;7457;50.960;6.830;2022-11-15T15:26:17;3.67;;;2.53;;
14732;SDS011;7457;50.960;6.830;2022-11-15T15:28:42;5.22;;;2.50;;
14732;SDS011;7457;50.960;6.830;2022-11-15T15:31:09;3.10;;;2.42;;
14732;SDS011;7457;50.960;6.830;2022-11-15T15:33:35;2.95;;;2.50;;
14732;SDS011;7457;50.960;6.830;2022-11-15T15:36:01;3.40;;;2.53;;
14732;SDS011;7457;50.960;6.830;2022-11-15T15:38:27;2.65;;;2.33;;
14732;SDS011;7457;50.960;6.830;2022-11-15T15:40:53;4.05;;;2.30;;
14732;SDS011;7457;50.960;6.830;2022-11-15T15:43:19;3.65;;;2.50;;
14732;SDS011;7457;50.960;6.830;2022-11-15T15:45:45;5.00;;;2.40;;
14732;SDS011;7457;50.960;6.830;2022-11-15T15:48:14;2.38;;;2.17;;
14732;SDS011;7457;50.960;6.830;2022-11-15T15:50:41;3.22;;;2.30;;
14732;SDS011;7457;50.960;6.830;2022-11-15T15:53:08;3.22;;;2.33;;
14732;SDS011;7457;50.960;6.830;2022-11-15T15:55:35;3.80;;;2.10;;
14732;SDS011;7457;50.960;6.830;2022-11-15T15:58:02;2.95;;;2.00;;
14732;SDS011;7457;50.960;6.830;2022-11-15T16:00:28;2.75;;;2.38;;
14732;SDS011;7457;50.960;6.830;2022-11-15T16:02:54;2.92;;;2.67;;
14732;SDS011;7457;50.960;6.830;2022-11-15T16:05:20;2.67;;;1.90;;
14732;SDS011;7457;50.960;6.830;2022-11-15T16:07:47;2.33;;;2.10;;
14732;SDS011;7457;50.960;6.830;2022-11-15T16:12:38;3.00;;;2.00;;
14732;SDS011;7457;50.960;6.830;2022-11-15T16:15:04;2.45;;;1.90;;
14732;SDS011;7457;50.960;6.830;2022-11-15T16:17:31;2.25;;;2.03;;
14732;SDS011;7457;50.960;6.830;2022-11-15T16:20:00;3.33;;;2.20;;
14732;SDS011;7457;50.960;6.830;2022-11-15T16:22:25;2.20;;;2.00;;
14732;SDS011;7457;50.960;6.830;2022-11-15T16:24:51;3.00;;;2.38;;
14732;SDS011;7457;50.960;6.830;2022-11-15T16:27:18;4.43;;;2.20;;
14732;SDS011;7457;50.960;6.830;2022-11-15T16:29:45;2.97;;;2.17;;
14732;SDS011;7457;50.960;6.830;2022-11-15T16:32:11;3.08;;;1.88;;
14732;SDS011;7457;50.960;6.830;2022-11-15T16:34:37;2.92;;;2.30;;
14732;SDS011;7457;50.960;6.830;2022-11-15T16:37:03;2.40;;;2.20;;
14732;SDS011;7457;50.960;6.830;2022-11-15T16:39:29;3.47;;;2.33;;
14732;SDS011;7457;50.960;6.830;2022-11-15T16:41:56;5.05;;;2.65;;
14732;SDS011;7457;50.960;6.830;2022-11-15T16:44:22;3.83;;;2.42;;
14732;SDS011;7457;50.960;6.830;2022-11-15T16:46:49;3.67;;;2.28;;
14732;SDS011;7457;50.960;6.830;2022-11-15T16:49:16;2.60;;;2.33;;
14732;SDS011;7457;50.960;6.830;2022-11-15T16:51:45;3.67;;;2.20;;
14732;SDS011;7457;50.960;6.830;2022-11-15T16:54:12;3.83;;;2.13;;
14732;SDS011;7457;50.960;6.830;2022-11-15T16:56:38;3.53;;;2.30;;
14732;SDS011;7457;50.960;6.830;2022-11-15T16:59:04;2.55;;;2.25;;
14732;SDS011;7457;50.960;6.830;2022-11-15T17:01:31;4.32;;;2.20;;
14732;SDS011;7457;50.960;6.830;2022-11-15T17:03:59;5.57;;;2.28;;
14732;SDS011;7457;50.960;6.830;2022-11-15T17:06:36;1.88;;;1.73;;
14732;SDS011;7457;50.960;6.830;2022-11-15T17:09:03;2.72;;;2.30;;
14732;SDS011;7457;50.960;6.830;2022-11-15T17:11:29;2.92;;;2.28;;
14732;SDS011;7457;50.960;6.830;2022-11-15T17:13:58;3.00;;;2.33;;
14732;SDS011;7457;50.960;6.830;2022-11-15T17:16:23;2.53;;;2.20;;
14732;SDS011;7457;50.960;6.830;2022-11-15T17:18:50;4.10;;;2.50;;
14732;SDS011;7457;50.960;6.830;2022-11-15T17:21:17;4.22;;;2.40;;
14732;SDS011;7457;50.960;6.830;2022-11-15T17:23:44;3.25;;;2.33;;
14732;SDS011;7457;50.960;6.830;2022-11-15T17:26:11;3.28;;;2.05;;
14732;SDS011;7457;50.960;6.830;2022-11-15T17:28:37;2.40;;;2.20;;
14732;SDS011;7457;50.960;6.830;2022-11-15T17:31:07;4.18;;;2.50;;
14732;SDS011;7457;50.960;6.830;2022-11-15T17:33:35;3.10;;;2.60;;
14732;SDS011;7457;50.960;6.830;2022-11-15T17:36:03;2.50;;;2.30;;
14732;SDS011;7457;50.960;6.830;2022-11-15T17:38:30;3.58;;;2.53;;